createdAt,value
2018-08-20T00:00:56.039Z,0.87
2018-08-20T00:03:23.515Z,1.20
2018-08-20T00:05:53.792Z,1.17
2018-08-20T00:08:22.133Z,1.07
2018-08-20T00:10:52.430Z,0.97
2018-08-20T00:13:20.045Z,1.03
2018-08-20T00:15:47.781Z,0.70
2018-08-20T00:21:02.159Z,1.20
2018-08-20T00:23:29.656Z,1.00
2018-08-20T00:25:58.395Z,1.20
2018-08-20T00:28:26.617Z,1.10
2018-08-20T00:30:54.067Z,1.03
2018-08-20T00:33:21.604Z,0.97
2018-08-20T00:35:49.278Z,1.07
2018-08-20T00:38:16.750Z,1.00
2018-08-20T00:40:44.703Z,1.10
2018-08-20T00:43:12.405Z,1.20
2018-08-20T00:45:39.975Z,1.20
2018-08-20T00:48:07.594Z,1.10
2018-08-20T00:50:35.220Z,1.00
2018-08-20T00:53:02.937Z,1.20
2018-08-20T00:55:30.435Z,1.60
2018-08-20T00:57:58.027Z,1.00
2018-08-20T01:00:25.502Z,1.10
2018-08-20T01:02:52.940Z,1.47
2018-08-20T01:05:20.739Z,1.20
2018-08-20T01:07:48.196Z,1.53
2018-08-20T01:10:15.678Z,1.47
2018-08-20T01:12:43.478Z,1.50
2018-08-20T01:15:10.935Z,1.40
2018-08-20T01:17:38.419Z,1.30
2018-08-20T01:20:06.369Z,1.40
2018-08-20T01:22:33.797Z,1.50
2018-08-20T01:25:01.343Z,1.40
2018-08-20T01:27:29.493Z,1.50
2018-08-20T01:29:56.918Z,1.13
2018-08-20T01:32:24.440Z,0.97
2018-08-20T01:34:52.120Z,1.50
2018-08-20T01:37:20.269Z,1.60
2018-08-20T01:39:48.369Z,1.30
2018-08-20T01:42:16.557Z,1.53
2018-08-20T01:44:44.986Z,1.50
2018-08-20T01:47:12.398Z,1.10
2018-08-20T01:49:39.899Z,1.50
2018-08-20T01:52:07.388Z,1.47
2018-08-20T01:54:36.167Z,1.40
2018-08-20T01:57:04.058Z,1.27
2018-08-20T01:59:31.533Z,1.40
2018-08-20T02:01:59.130Z,1.53
2018-08-20T02:04:26.869Z,1.60
2018-08-20T02:06:54.488Z,1.47
2018-08-20T02:09:22.089Z,1.60
2018-08-20T02:11:49.892Z,1.20
2018-08-20T02:14:17.450Z,1.47
2018-08-20T02:16:44.947Z,1.50
2018-08-20T02:19:12.642Z,1.60
2018-08-20T02:21:40.143Z,1.43
2018-08-20T02:24:07.594Z,1.50
2018-08-20T02:26:35.235Z,1.10
2018-08-20T02:29:02.769Z,1.57
2018-08-20T02:31:30.307Z,1.40
2018-08-20T02:33:57.893Z,1.60
2018-08-20T02:36:25.390Z,1.57
2018-08-20T02:38:52.823Z,1.53
2018-08-20T02:41:20.420Z,1.60
2018-08-20T02:43:48.018Z,1.70
2018-08-20T02:46:15.776Z,1.90
2018-08-20T02:48:43.423Z,1.90
2018-08-20T02:51:10.977Z,1.70
2018-08-20T02:53:38.468Z,1.80
2018-08-20T02:56:06.195Z,2.53
2018-08-20T02:58:33.702Z,1.87
2018-08-20T03:01:01.174Z,1.80
2018-08-20T03:03:28.785Z,1.80
2018-08-20T03:05:56.248Z,1.90
2018-08-20T03:08:23.759Z,1.70
2018-08-20T03:10:51.292Z,1.60
2018-08-20T03:13:18.810Z,1.93
2018-08-20T03:15:46.280Z,2.00
2018-08-20T03:18:13.893Z,1.97
2018-08-20T03:20:41.383Z,1.83
2018-08-20T03:23:08.829Z,1.60
2018-08-20T03:25:36.425Z,2.37
2018-08-20T03:28:04.061Z,1.87
2018-08-20T03:30:31.506Z,1.80
2018-08-20T03:32:59.226Z,1.67
2018-08-20T03:35:26.720Z,1.70
2018-08-20T03:37:54.205Z,2.23
2018-08-20T03:40:21.926Z,1.80
2018-08-20T03:42:49.404Z,2.00
2018-08-20T03:45:16.924Z,1.90
2018-08-20T03:47:44.633Z,2.37
2018-08-20T03:50:13.475Z,2.10
2018-08-20T03:52:41.033Z,2.23
2018-08-20T03:55:08.765Z,2.50
2018-08-20T03:57:36.895Z,2.10
2018-08-20T04:00:05.073Z,2.10
2018-08-20T04:02:32.768Z,2.30
2018-08-20T04:05:00.303Z,1.87
2018-08-20T04:07:27.741Z,2.20
2018-08-20T04:09:55.325Z,2.20
2018-08-20T04:12:22.782Z,2.17
2018-08-20T04:14:50.269Z,2.30
2018-08-20T04:17:48.626Z,2.33
2018-08-20T04:20:16.051Z,1.90
2018-08-20T04:22:43.500Z,2.00
2018-08-20T04:25:11.097Z,2.00
2018-08-20T04:27:38.563Z,2.23
2018-08-20T04:30:06.063Z,2.37
2018-08-20T04:32:33.573Z,2.10
2018-08-20T04:35:01.024Z,1.80
2018-08-20T04:37:28.461Z,2.40
2018-08-20T04:39:56.058Z,2.10
2018-08-20T04:42:23.480Z,2.23
2018-08-20T04:44:50.914Z,3.03
2018-08-20T04:47:18.686Z,2.43
2018-08-20T04:49:46.132Z,2.00
2018-08-20T04:52:13.562Z,1.90
2018-08-20T04:54:41.212Z,1.93
2018-08-20T04:57:08.785Z,2.13
2018-08-20T04:59:36.521Z,1.70
2018-08-20T05:02:04.174Z,1.80
2018-08-20T05:04:31.654Z,1.90
2018-08-20T05:06:59.134Z,1.80
2018-08-20T05:09:26.768Z,1.70
2018-08-20T05:11:54.289Z,1.97
2018-08-20T05:14:21.756Z,2.07
2018-08-20T05:16:49.388Z,2.30
2018-08-20T05:19:16.870Z,1.80
2018-08-20T05:21:44.322Z,1.97
2018-08-20T05:24:11.929Z,1.97
2018-08-20T05:26:39.377Z,1.80
2018-08-20T05:29:06.986Z,2.00
2018-08-20T05:31:34.788Z,1.73
2018-08-20T05:34:02.232Z,1.90
2018-08-20T05:36:29.694Z,1.90
2018-08-20T05:38:57.407Z,1.37
2018-08-20T05:41:24.859Z,2.10
2018-08-20T05:43:52.360Z,1.57
2018-08-20T05:46:20.085Z,1.70
2018-08-20T05:48:47.511Z,1.53
2018-08-20T05:51:14.984Z,1.60
2018-08-20T05:53:42.740Z,1.73
2018-08-20T05:56:10.196Z,1.50
2018-08-20T05:58:37.616Z,1.50
2018-08-20T06:01:05.500Z,1.30
2018-08-20T06:03:32.944Z,1.30
2018-08-20T06:06:00.441Z,1.57
2018-08-20T06:08:28.145Z,1.20
2018-08-20T06:10:55.613Z,2.23
2018-08-20T06:13:23.098Z,1.23
2018-08-20T06:15:50.868Z,1.00
2018-08-20T06:18:18.394Z,1.17
2018-08-20T06:20:45.853Z,1.30
2018-08-20T06:23:13.443Z,1.30
2018-08-20T06:25:40.969Z,1.30
2018-08-20T06:28:08.390Z,1.30
2018-08-20T06:30:36.076Z,1.03
2018-08-20T06:33:03.490Z,1.17
2018-08-20T06:35:31.022Z,1.23
2018-08-20T06:37:58.686Z,1.00
2018-08-20T06:40:26.186Z,1.10
2018-08-20T06:42:53.666Z,1.07
2018-08-20T06:45:21.313Z,0.97
2018-08-20T06:47:48.808Z,1.10
2018-08-20T06:50:16.528Z,0.87
2018-08-20T06:52:44.776Z,1.00
2018-08-20T06:55:13.210Z,1.07
2018-08-20T06:57:40.820Z,0.97
2018-08-20T07:00:09.732Z,0.97
2018-08-20T07:02:37.413Z,1.20
2018-08-20T07:05:05.778Z,1.00
2018-08-20T07:07:33.507Z,0.90
2018-08-20T07:10:00.956Z,0.80
2018-08-20T07:12:28.528Z,1.13
2018-08-20T07:14:56.208Z,0.80
2018-08-20T07:17:23.684Z,0.90
2018-08-20T07:19:51.163Z,0.90
2018-08-20T07:22:19.101Z,0.77
2018-08-20T07:24:46.630Z,0.80
2018-08-20T07:27:14.094Z,0.67
2018-08-20T07:29:42.687Z,0.80
2018-08-20T07:32:12.280Z,0.80
2018-08-20T07:34:44.922Z,0.80
2018-08-20T07:37:13.569Z,0.80
2018-08-20T07:39:43.356Z,0.80
2018-08-20T07:42:11.117Z,0.80
2018-08-20T07:44:39.359Z,0.70
2018-08-20T07:47:06.995Z,0.60
2018-08-20T07:49:34.530Z,0.50
2018-08-20T07:52:02.226Z,0.47
2018-08-20T07:54:29.963Z,0.60
2018-08-20T07:56:57.388Z,0.80
2018-08-20T07:59:24.949Z,0.87
2018-08-20T08:01:52.439Z,0.67
2018-08-20T08:04:20.177Z,0.43
2018-08-20T08:06:48.015Z,0.60
2018-08-20T08:09:15.475Z,0.50
2018-08-20T08:11:42.962Z,0.70
2018-08-20T08:14:10.697Z,0.57
2018-08-20T08:16:38.091Z,0.40
2018-08-20T08:19:05.684Z,0.60
2018-08-20T08:21:33.284Z,0.50
2018-08-20T08:24:01.216Z,0.50
2018-08-20T08:26:28.911Z,0.50
2018-08-20T08:28:56.642Z,0.60
2018-08-20T08:31:24.108Z,0.70
2018-08-20T08:33:51.595Z,0.50
2018-08-20T08:36:19.307Z,0.50
2018-08-20T08:38:46.734Z,0.50
2018-08-20T08:41:14.301Z,0.50
2018-08-20T08:43:42.154Z,0.50
2018-08-20T08:46:09.691Z,0.60
2018-08-20T08:48:37.139Z,0.60
2018-08-20T08:51:04.982Z,0.50
2018-08-20T08:53:32.473Z,0.37
2018-08-20T08:56:00.011Z,0.60
2018-08-20T08:58:27.717Z,0.50
2018-08-20T09:00:55.179Z,0.70
2018-08-20T09:03:22.757Z,0.60
2018-08-20T09:05:50.794Z,0.43
2018-08-20T09:08:18.296Z,0.93
2018-08-20T09:10:45.864Z,0.50
2018-08-20T09:13:13.558Z,0.63
2018-08-20T09:15:41.020Z,0.57
2018-08-20T09:18:08.627Z,0.50
2018-08-20T09:20:36.455Z,0.47
2018-08-20T09:23:03.949Z,0.63
2018-08-20T09:25:31.445Z,0.40
2018-08-20T09:27:59.072Z,0.60
2018-08-20T09:30:26.603Z,0.50
2018-08-20T09:32:54.093Z,0.40
2018-08-20T09:35:21.783Z,0.50
2018-08-20T09:37:49.231Z,0.60
2018-08-20T09:40:16.905Z,0.70
2018-08-20T09:42:44.529Z,0.60
2018-08-20T09:45:12.154Z,0.60
2018-08-20T09:47:40.453Z,0.60
2018-08-20T09:50:10.678Z,0.77
2018-08-20T09:52:38.186Z,0.50
2018-08-20T09:55:06.091Z,0.43
2018-08-20T09:57:33.842Z,0.53
2018-08-20T10:00:01.511Z,0.50
2018-08-20T10:02:29.029Z,0.60
2018-08-20T10:04:57.006Z,0.40
2018-08-20T10:07:24.787Z,0.53
2018-08-20T10:09:52.298Z,0.60
2018-08-20T10:12:20.151Z,0.50
2018-08-20T10:14:47.655Z,0.70
2018-08-20T10:17:15.306Z,0.40
2018-08-20T10:19:42.964Z,0.70
2018-08-20T10:22:10.415Z,0.60
2018-08-20T10:24:37.855Z,0.43
2018-08-20T10:27:05.710Z,0.30
2018-08-20T10:29:33.230Z,0.40
2018-08-20T10:32:00.664Z,0.40
2018-08-20T10:34:28.206Z,0.50
2018-08-20T10:36:55.671Z,0.37
2018-08-20T10:39:23.105Z,0.50
2018-08-20T10:41:50.841Z,0.60
2018-08-20T10:44:18.333Z,0.60
2018-08-20T10:46:45.767Z,0.60
2018-08-20T10:49:13.455Z,0.27
2018-08-20T10:51:40.881Z,0.50
2018-08-20T10:54:08.340Z,0.50
2018-08-20T10:56:36.057Z,0.50
2018-08-20T10:59:03.611Z,0.50
2018-08-20T11:01:31.084Z,0.30
2018-08-20T11:03:58.983Z,0.40
2018-08-20T11:06:27.608Z,0.40
2018-08-20T11:08:55.295Z,0.93
2018-08-20T11:11:22.876Z,0.20
2018-08-20T11:13:50.515Z,0.40
2018-08-20T11:16:17.999Z,0.50
2018-08-20T11:18:45.562Z,0.40
2018-08-20T11:21:13.146Z,0.40
2018-08-20T11:23:40.601Z,0.30
2018-08-20T11:26:08.157Z,0.30
2018-08-20T11:28:35.762Z,0.50
2018-08-20T11:31:03.346Z,0.50
2018-08-20T11:33:30.834Z,0.60
2018-08-20T11:35:58.522Z,0.57
2018-08-20T11:38:25.983Z,0.30
2018-08-20T11:40:53.446Z,0.40
2018-08-20T11:43:21.123Z,0.27
2018-08-20T11:45:48.570Z,0.30
2018-08-20T11:48:16.049Z,0.43
2018-08-20T11:50:43.759Z,0.40
2018-08-20T11:53:11.227Z,0.40
2018-08-20T11:55:38.653Z,0.40
2018-08-20T11:58:06.393Z,0.20
2018-08-20T12:00:33.882Z,0.30
2018-08-20T12:03:01.349Z,0.37
2018-08-20T12:05:29.029Z,0.30
2018-08-20T12:07:56.403Z,0.37
2018-08-20T12:10:24.040Z,0.30
2018-08-20T12:12:51.606Z,0.30
2018-08-20T12:15:19.043Z,0.30
2018-08-20T12:17:46.585Z,0.20
2018-08-20T12:20:14.330Z,0.20
2018-08-20T12:22:41.832Z,0.30
2018-08-20T12:25:10.831Z,0.20
2018-08-20T12:27:38.494Z,0.40
2018-08-20T12:30:06.805Z,0.30
2018-08-20T12:32:34.244Z,0.20
2018-08-20T12:35:01.989Z,0.20
2018-08-20T12:37:29.409Z,0.20
2018-08-20T12:39:56.931Z,0.20
2018-08-20T12:42:24.496Z,0.23
2018-08-20T12:44:51.887Z,0.30
2018-08-20T12:47:19.314Z,0.23
2018-08-20T12:49:46.981Z,0.20
2018-08-20T12:52:14.474Z,0.20
2018-08-20T12:54:42.053Z,0.30
2018-08-20T12:57:09.778Z,0.37
2018-08-20T12:59:37.195Z,0.27
2018-08-20T13:02:04.914Z,0.37
2018-08-20T13:04:32.644Z,0.20
2018-08-20T13:07:00.473Z,0.20
2018-08-20T13:09:27.917Z,0.20
2018-08-20T13:11:55.740Z,0.20
2018-08-20T13:14:23.183Z,0.37
2018-08-20T13:16:50.648Z,0.20
2018-08-20T13:19:18.337Z,0.23
2018-08-20T13:21:45.765Z,0.23
2018-08-20T13:24:13.270Z,0.20
2018-08-20T13:26:40.990Z,0.20
2018-08-20T13:29:08.468Z,0.13
2018-08-20T13:31:35.934Z,0.37
2018-08-20T13:34:03.656Z,0.20
2018-08-20T13:36:31.134Z,0.30
2018-08-20T13:38:58.602Z,0.30
2018-08-20T13:41:26.186Z,0.20
2018-08-20T13:43:53.699Z,0.27
2018-08-20T13:46:21.177Z,0.10
2018-08-20T13:48:48.981Z,0.23
2018-08-20T13:51:16.421Z,0.20
2018-08-20T13:53:43.966Z,0.40
2018-08-20T13:56:11.692Z,0.30
2018-08-20T13:58:39.127Z,0.20
2018-08-20T14:01:06.603Z,0.30
2018-08-20T14:03:34.313Z,0.10
2018-08-20T14:06:01.781Z,0.30
2018-08-20T14:08:29.198Z,0.30
2018-08-20T14:10:56.823Z,0.20
2018-08-20T14:13:24.439Z,0.33
2018-08-20T14:15:51.970Z,0.30
2018-08-20T14:18:19.662Z,0.13
2018-08-20T14:21:04.285Z,0.20
2018-08-20T14:23:31.827Z,0.47
2018-08-20T14:25:59.247Z,0.20
2018-08-20T14:28:26.835Z,0.40
2018-08-20T14:30:54.483Z,0.20
2018-08-20T14:33:21.962Z,0.30
2018-08-20T14:35:49.441Z,0.30
2018-08-20T14:38:17.086Z,0.10
2018-08-20T14:40:44.586Z,0.30
2018-08-20T14:43:12.021Z,0.20
2018-08-20T14:45:44.930Z,0.30
2018-08-20T14:48:12.513Z,0.30
2018-08-20T14:50:40.013Z,0.40
2018-08-20T14:53:07.552Z,0.20
2018-08-20T14:55:35.129Z,0.30
2018-08-20T14:58:02.608Z,0.17
2018-08-20T15:00:30.143Z,0.37
2018-08-20T15:02:57.685Z,0.30
2018-08-20T15:05:25.227Z,0.50
2018-08-20T15:07:52.696Z,0.20
2018-08-20T15:10:21.126Z,0.30
2018-08-20T15:12:48.680Z,0.30
2018-08-20T15:15:16.296Z,0.20
2018-08-20T15:17:43.835Z,0.20
2018-08-20T15:20:11.420Z,0.37
2018-08-20T15:22:39.132Z,0.30
2018-08-20T15:25:06.781Z,0.20
2018-08-20T15:27:34.302Z,0.30
2018-08-20T15:30:01.775Z,0.10
2018-08-20T15:32:29.497Z,0.20
2018-08-20T15:34:56.956Z,0.30
2018-08-20T15:37:24.389Z,0.20
2018-08-20T15:39:51.921Z,0.43
2018-08-20T15:42:19.402Z,0.30
2018-08-20T15:44:46.848Z,0.20
2018-08-20T15:47:14.586Z,0.10
2018-08-20T15:49:42.050Z,0.30
2018-08-20T15:52:09.558Z,0.30
2018-08-20T15:54:37.149Z,0.30
2018-08-20T15:57:04.693Z,0.30
2018-08-20T15:59:32.158Z,0.20
2018-08-20T16:01:59.787Z,0.10
2018-08-20T16:04:27.300Z,0.20
2018-08-20T16:06:54.789Z,0.10
2018-08-20T16:09:22.436Z,0.27
2018-08-20T16:11:49.853Z,0.30
2018-08-20T16:14:17.378Z,0.20
2018-08-20T16:16:45.170Z,0.30
2018-08-20T16:19:12.575Z,0.27
2018-08-20T16:21:40.066Z,0.10
2018-08-20T16:24:07.627Z,0.20
2018-08-20T16:26:35.114Z,0.20
2018-08-20T16:29:02.608Z,0.40
2018-08-20T16:31:30.396Z,0.20
2018-08-20T16:33:57.953Z,0.10
2018-08-20T16:36:25.463Z,0.10
2018-08-20T16:38:53.102Z,0.20
2018-08-20T16:41:20.592Z,0.20
2018-08-20T16:43:48.139Z,0.10
2018-08-20T16:46:15.996Z,0.10
2018-08-20T16:48:43.426Z,0.10
2018-08-20T16:51:10.928Z,0.10
2018-08-20T16:53:38.618Z,0.10
2018-08-20T16:56:06.116Z,0.20
2018-08-20T16:58:33.675Z,0.10
2018-08-20T17:01:01.376Z,0.20
2018-08-20T17:03:29.530Z,0.10
2018-08-20T17:05:57.048Z,0.20
2018-08-20T17:08:29.355Z,0.10
2018-08-20T17:10:56.962Z,0.17
2018-08-20T17:13:24.468Z,0.10
2018-08-20T17:15:52.080Z,0.20
2018-08-20T17:18:19.661Z,0.20
2018-08-20T17:20:47.166Z,0.13
2018-08-20T17:23:17.308Z,0.20
2018-08-20T17:25:44.772Z,0.10
2018-08-20T17:28:12.239Z,0.20
2018-08-20T17:30:39.987Z,0.20
2018-08-20T17:33:07.784Z,0.20
2018-08-20T17:35:38.216Z,0.13
2018-08-20T17:38:06.299Z,0.10
2018-08-20T17:40:36.485Z,0.20
2018-08-20T17:43:04.058Z,0.27
2018-08-20T17:45:31.804Z,0.10
2018-08-20T17:47:59.273Z,0.20
2018-08-20T17:50:37.729Z,0.10
2018-08-20T17:53:05.190Z,0.20
2018-08-20T17:55:32.692Z,0.30
2018-08-20T17:58:00.493Z,0.30
2018-08-20T18:00:33.993Z,0.20
2018-08-20T18:03:01.775Z,0.20
2018-08-20T18:05:29.222Z,0.27
2018-08-20T18:07:56.812Z,0.17
2018-08-20T18:10:24.447Z,0.20
2018-08-20T18:12:51.903Z,0.10
2018-08-20T18:15:19.389Z,0.10
2018-08-20T18:17:47.013Z,0.10
2018-08-20T18:20:14.706Z,0.20
2018-08-20T18:22:42.383Z,0.10
2018-08-20T18:25:10.136Z,0.40
2018-08-20T18:27:42.770Z,0.20
2018-08-20T18:30:10.498Z,0.23
2018-08-20T18:32:38.025Z,0.33
2018-08-20T18:35:05.601Z,0.37
2018-08-20T18:37:37.644Z,0.10
2018-08-20T18:40:06.564Z,0.20
2018-08-20T18:42:39.698Z,0.20
2018-08-20T18:45:07.374Z,0.20
2018-08-20T18:47:34.829Z,0.30
2018-08-20T18:50:02.512Z,0.40
2018-08-20T18:52:30.952Z,0.20
2018-08-20T18:54:59.238Z,0.57
2018-08-20T18:57:28.979Z,0.30
2018-08-20T18:59:58.487Z,0.30
2018-08-20T19:02:46.708Z,0.20
2018-08-20T19:05:15.361Z,0.30
2018-08-20T19:07:43.074Z,0.37
2018-08-20T19:10:20.073Z,0.30
2018-08-20T19:12:47.691Z,0.40
2018-08-20T19:15:26.418Z,0.30
2018-08-20T19:17:53.966Z,0.30
2018-08-20T19:20:21.597Z,0.30
2018-08-20T19:22:49.228Z,0.20
2018-08-20T19:25:16.737Z,0.20
2018-08-20T19:27:44.222Z,0.27
2018-08-20T19:30:17.817Z,0.30
2018-08-20T19:32:45.884Z,0.30
2018-08-20T19:35:13.512Z,0.30
2018-08-20T19:37:41.030Z,0.20
2018-08-20T19:40:08.648Z,0.20
2018-08-20T19:42:36.187Z,0.20
2018-08-20T19:45:05.598Z,0.30
2018-08-20T19:47:33.512Z,0.40
2018-08-20T19:50:01.052Z,0.20
2018-08-20T19:52:28.647Z,0.30
2018-08-20T19:55:02.794Z,0.10
2018-08-20T19:57:31.370Z,0.30
2018-08-20T19:59:59.129Z,0.10
2018-08-20T20:02:26.610Z,0.37
2018-08-20T20:04:55.986Z,0.20
2018-08-20T20:07:23.597Z,0.40
2018-08-20T20:09:51.073Z,0.20
2018-08-20T20:12:18.559Z,0.20
2018-08-20T20:14:47.237Z,0.40
2018-08-20T20:17:14.770Z,0.20
2018-08-20T20:19:42.294Z,0.30
2018-08-20T20:22:13.143Z,0.30
2018-08-20T20:24:40.652Z,0.40
2018-08-20T20:27:08.149Z,0.20
2018-08-20T20:29:35.804Z,0.30
2018-08-20T20:32:03.329Z,0.27
2018-08-20T20:34:30.869Z,0.20
2018-08-20T20:36:58.474Z,0.20
2018-08-20T20:39:25.973Z,0.20
2018-08-20T20:41:53.436Z,0.23
2018-08-20T20:44:21.177Z,0.23
2018-08-20T20:46:48.682Z,0.20
2018-08-20T20:49:16.151Z,0.20
2018-08-20T20:51:43.627Z,0.27
2018-08-20T20:54:11.114Z,0.20
2018-08-20T20:56:38.635Z,0.20
2018-08-20T20:59:06.161Z,0.30
2018-08-20T21:01:33.642Z,0.30
2018-08-20T21:04:03.108Z,0.20
2018-08-20T21:06:30.691Z,0.27
2018-08-20T21:08:58.436Z,0.50
2018-08-20T21:11:25.963Z,0.40
2018-08-20T21:13:53.392Z,0.53
2018-08-20T21:16:23.033Z,0.30
2018-08-20T21:18:52.710Z,0.60
2018-08-20T21:21:20.727Z,0.50
2018-08-20T21:23:48.556Z,0.40
2018-08-20T21:26:16.159Z,0.40
2018-08-20T21:28:45.830Z,0.30
2018-08-20T21:31:14.419Z,0.40
2018-08-20T21:33:42.628Z,0.37
2018-08-20T21:36:10.648Z,0.30
2018-08-20T21:38:38.179Z,0.40
2018-08-20T21:41:05.786Z,0.37
2018-08-20T21:43:38.892Z,0.30
2018-08-20T21:46:06.565Z,0.20
2018-08-20T21:48:34.096Z,0.27
2018-08-20T21:51:05.332Z,0.20
2018-08-20T21:53:38.408Z,0.40
2018-08-20T21:56:08.289Z,0.20
2018-08-20T21:58:37.347Z,0.40
2018-08-20T22:01:05.683Z,0.60
2018-08-20T22:03:33.189Z,0.33
2018-08-20T22:06:00.657Z,0.20
2018-08-20T22:08:28.212Z,0.20
2018-08-20T22:10:55.716Z,0.10
2018-08-20T22:13:23.265Z,0.20
2018-08-20T22:16:07.484Z,0.30
2018-08-20T22:18:40.002Z,0.40
2018-08-20T22:21:12.133Z,0.40
2018-08-20T22:23:40.441Z,0.30
2018-08-20T22:26:10.304Z,0.23
2018-08-20T22:28:37.960Z,0.40
2018-08-20T22:31:05.811Z,0.40
2018-08-20T22:33:33.671Z,0.23
2018-08-20T22:36:01.310Z,0.30
2018-08-20T22:38:32.598Z,0.20
2018-08-20T22:41:00.123Z,0.30
2018-08-20T22:43:27.616Z,0.20
2018-08-20T22:45:55.172Z,0.20
2018-08-20T22:48:22.631Z,0.20
2018-08-20T22:50:59.382Z,0.30
2018-08-20T22:53:31.330Z,0.10
2018-08-20T22:56:05.527Z,0.10
2018-08-20T22:58:32.946Z,0.20
2018-08-20T23:01:00.475Z,0.30
2018-08-20T23:03:28.172Z,0.20
2018-08-20T23:05:55.603Z,0.10
2018-08-20T23:08:23.113Z,0.30
2018-08-20T23:10:50.779Z,0.10
2018-08-20T23:13:19.651Z,0.20
2018-08-20T23:15:47.108Z,0.83
2018-08-20T23:18:14.909Z,0.30
2018-08-20T23:20:42.928Z,0.20
2018-08-20T23:23:10.399Z,0.10
2018-08-20T23:25:38.027Z,0.20
2018-08-20T23:28:05.689Z,0.10
2018-08-20T23:30:33.158Z,0.10
2018-08-20T23:33:00.787Z,0.13
2018-08-20T23:35:28.258Z,0.13
2018-08-20T23:37:55.659Z,0.20
2018-08-20T23:40:23.273Z,0.30
2018-08-20T23:42:50.752Z,0.10
2018-08-20T23:45:18.242Z,0.20
2018-08-20T23:47:46.018Z,0.10
2018-08-20T23:50:13.449Z,0.20
2018-08-20T23:52:40.933Z,0.20
2018-08-20T23:55:08.538Z,0.10
2018-08-20T23:57:36.034Z,0.20
